This is the latest recevied weather packets stored in our database for station/object CA2JAT-13. If no packets are shown the sender has not sent any weather packets the latest 10 day(s).
| Time | Temp. | Humidity | Pressure | Rain* | Wind** | Luminosity | Snow |
|---|---|---|---|---|---|---|---|
| 1777808212 | 18.33° C | 14% | 1015 hPa | 0 mm | - | 100 W/m² | - |
| 1777807449 | 7.22° C | 47% | 1019.3 hPa | 0 mm | - | 0 W/m² | - |
| 1777806411 | 15.56° C | 21% | 1014 hPa | 0 mm | - | 0 W/m² | - |
| 1777804749 | 7.22° C | 51% | 1019.1 hPa | 0 mm | - | 0 W/m² | - |
| 1777804610 | 16.11° C | 16% | 1014 hPa | 0 mm | - | 0 W/m² | - |
| 1777802808 | 16.11° C | 16% | 1013 hPa | 0 mm | - | 0 W/m² | - |
| 1777802049 | 8.33° C | 48% | 1018.2 hPa | 0 mm | - | 0 W/m² | - |
| 1777801007 | 16.11° C | 16% | 1013 hPa | 0 mm | - | 0 W/m² | - |
| 1777799348 | 7.22° C | 52% | 1018.3 hPa | 0 mm | - | 0 W/m² | - |
| 1777799206 | 16.67° C | 16% | 1013 hPa | 0 mm | - | 0 W/m² | - |
| 1777797405 | 16.67° C | 16% | 1013 hPa | 0 mm | - | 0 W/m² | - |
| 1777796648 | 8.33° C | 50% | 1018.3 hPa | 0 mm | - | 0 W/m² | - |
| 1777795604 | 16.67° C | 18% | 1013 hPa | 0 mm | - | 0 W/m² | - |
| 1777793948 | 8.89° C | 52% | 1018.4 hPa | 0 mm | - | 0 W/m² | - |
| 1777793802 | 17.22° C | 19% | 1013 hPa | 0 mm | - | 0 W/m² | - |
| 1777792001 | 17.22° C | 19% | 1013 hPa | 0 mm | - | 0 W/m² | - |
| 1777791247 | 10° C | 48% | 1018.3 hPa | 0 mm | - | 0 W/m² | - |
| 1777790200 | 17.22° C | 19% | 1013 hPa | 0 mm | - | 0 W/m² | - |
| 1777788547 | 10° C | 46% | 1018.4 hPa | 0 mm | - | 0 W/m² | - |
| 1777788399 | 16.67° C | 23% | 1014 hPa | 0 mm | - | 0 W/m² | - |
| 1777786598 | 16.67° C | 23% | 1014 hPa | 0 mm | - | 0 W/m² | - |
| 1777785846 | 10° C | 51% | 1018.7 hPa | 0 mm | - | 0 W/m² | - |
| 1777784796 | 17.22° C | 26% | 1014 hPa | 0 mm | - | 0 W/m² | - |
| 1777783146 | 11.11° C | 48% | 1018.9 hPa | 0 mm | - | 0 W/m² | - |
| 1777782995 | 17.22° C | 28% | 1014 hPa | 0 mm | - | 0 W/m² | - |
* Rain latest hour (hover to see other rain measurements)
** Current wind speed in m/s (hover to see current wind gust speed)